Time;durP1;ratioP1;P1;durP2;ratioP2;P2;SDS_P1;SDS_P2;PMS_P1;PMS_P2;Temp;Humidity;BMP_temperature;BMP_pressure;BME280_temperature;BME280_humidity;BME280_pressure;Samples;Min_cycle;Max_cycle;Signal;HPM_P1;HPM_P2
2023/07/04 00:01:46;;;;;;;11.77;2.30;;;12.90;99.90;;;;;;5040758;28;20059;-73
2023/07/04 00:04:12;;;;;;;10.52;2.40;;;13.00;99.90;;;;;;5039651;28;20124;-72
2023/07/04 00:06:38;;;;;;;7.30;1.65;;;12.80;99.90;;;;;;5040913;28;20052;-72
2023/07/04 00:09:05;;;;;;;11.00;2.05;;;12.90;99.90;;;;;;5040158;28;20048;-72
2023/07/04 00:11:31;;;;;;;11.38;2.33;;;12.80;99.90;;;;;;5001266;28;20045;-72
2023/07/04 00:13:57;;;;;;;12.82;2.00;;;12.80;99.90;;;;;;5019496;28;20095;-73
2023/07/04 00:16:23;;;;;;;11.25;2.80;;;12.70;99.90;;;;;;5042975;28;20122;-72
2023/07/04 00:18:49;;;;;;;6.22;1.80;;;12.70;99.90;;;;;;5023009;28;20334;-72
2023/07/04 00:21:15;;;;;;;8.10;2.05;;;12.70;99.90;;;;;;5040500;28;20075;-73
2023/07/04 00:23:45;;;;;;;8.57;2.20;;;12.60;99.90;;;;;;5038383;28;20086;-72
2023/07/04 00:26:12;;;;;;;10.75;1.92;;;12.60;99.90;;;;;;5026145;28;20087;-72
2023/07/04 00:28:38;;;;;;;9.00;2.47;;;12.60;99.90;;;;;;5025293;28;20051;-72
2023/07/04 00:31:05;;;;;;;8.40;2.45;;;12.60;99.90;;;;;;5010612;28;20037;-72
2023/07/04 00:33:31;;;;;;;8.30;1.92;;;12.60;99.90;;;;;;5040746;28;20045;-72
2023/07/04 00:36:09;;;;;;;7.38;2.15;;;12.60;99.90;;;;;;5023215;28;20505;-71
2023/07/04 00:38:36;;;;;;;6.20;2.08;;;12.60;99.90;;;;;;5020623;28;20099;-71
2023/07/04 00:41:24;;;;;;;6.43;2.47;;;12.50;99.90;;;;;;5018141;28;20048;-71
2023/07/04 00:44:09;;;;;;;8.13;2.33;;;12.50;99.90;;;;;;5017327;28;20355;-71
2023/07/04 00:46:51;;;;;;;9.82;2.00;;;12.50;99.90;;;;;;5040975;28;20052;-71
2023/07/04 00:49:48;;;;;;;10.07;2.03;;;12.50;99.90;;;;;;5042020;28;20040;-71
2023/07/04 00:52:23;;;;;;;5.30;2.45;;;12.50;99.90;;;;;;5008533;28;20075;-71
2023/07/04 00:54:53;;;;;;;8.65;2.35;;;12.60;99.90;;;;;;5036324;28;20047;-71
2023/07/04 00:57:25;;;;;;;8.98;2.38;;;12.60;99.90;;;;;;5022049;28;20076;-71
2023/07/04 00:59:58;;;;;;;5.15;2.22;;;12.60;99.90;;;;;;5027409;28;20068;-71
2023/07/04 01:02:28;;;;;;;5.60;2.20;;;12.60;99.90;;;;;;5036052;28;20087;-71
2023/07/04 01:04:55;;;;;;;7.88;2.15;;;12.60;99.90;;;;;;5018676;28;20041;-71
2023/07/04 01:07:32;;;;;;;7.45;2.25;;;12.70;99.90;;;;;;5035197;28;20146;-71
2023/07/04 01:10:06;;;;;;;8.05;2.08;;;12.70;99.90;;;;;;5041367;28;20073;-71
2023/07/04 01:12:33;;;;;;;12.15;2.42;;;12.80;99.90;;;;;;5018330;28;20035;-71
2023/07/04 01:15:02;;;;;;;7.97;2.28;;;12.80;99.90;;;;;;5017464;28;20140;-71
2023/07/04 01:17:29;;;;;;;6.93;2.08;;;12.90;99.90;;;;;;5023413;28;20048;-71
2023/07/04 01:19:56;;;;;;;6.82;2.20;;;12.80;99.90;;;;;;5040731;28;20041;-72
2023/07/04 01:22:33;;;;;;;8.45;2.22;;;12.90;99.90;;;;;;5038490;28;20048;-70
2023/07/04 01:25:21;;;;;;;7.15;2.22;;;12.90;99.90;;;;;;5038718;28;20034;-70
2023/07/04 01:27:49;;;;;;;6.43;2.13;;;13.00;99.90;;;;;;5036091;28;20045;-71
2023/07/04 01:30:16;;;;;;;9.65;3.05;;;13.00;99.90;;;;;;5031299;28;20041;-71
2023/07/04 01:32:43;;;;;;;9.70;1.92;;;12.90;99.90;;;;;;5036641;28;20053;-72
2023/07/04 01:35:12;;;;;;;7.53;1.95;;;13.00;99.90;;;;;;5035395;28;20115;-71
2023/07/04 01:37:38;;;;;;;10.15;2.20;;;12.90;99.90;;;;;;5047328;28;20120;-70
2023/07/04 01:40:07;;;;;;;7.13;2.20;;;12.90;99.90;;;;;;5025761;28;20088;-70
2023/07/04 01:42:36;;;;;;;5.22;2.03;;;12.90;99.90;;;;;;5036400;28;20491;-71
2023/07/04 01:45:04;;;;;;;7.03;1.77;;;12.90;99.90;;;;;;5039034;28;20083;-71
2023/07/04 01:47:30;;;;;;;6.35;1.80;;;12.90;99.90;;;;;;5031227;28;20045;-71
2023/07/04 01:49:57;;;;;;;9.13;2.03;;;12.90;99.90;;;;;;5010050;28;20056;-71
2023/07/04 01:52:23;;;;;;;4.47;1.90;;;12.80;99.90;;;;;;5018467;28;20069;-72
2023/07/04 01:54:49;;;;;;;3.22;1.50;;;12.90;99.90;;;;;;5003542;28;20568;-72
2023/07/04 01:57:15;;;;;;;5.40;1.98;;;12.90;99.90;;;;;;5003651;28;20600;-70
2023/07/04 01:59:40;;;;;;;8.27;1.83;;;13.00;99.90;;;;;;5009259;28;20073;-71
2023/07/04 02:02:06;;;;;;;6.60;2.17;;;13.00;99.90;;;;;;5003426;28;20037;-71
2023/07/04 02:04:32;;;;;;;5.85;1.55;;;13.00;99.90;;;;;;5022838;28;20069;-70
2023/07/04 02:06:57;;;;;;;6.78;2.63;;;13.00;99.90;;;;;;5008277;28;20073;-70
2023/07/04 02:09:26;;;;;;;7.18;2.20;;;13.10;99.90;;;;;;5025813;28;20144;-70
2023/07/04 02:11:51;;;;;;;6.40;1.88;;;13.10;99.90;;;;;;5028806;28;20072;-71
2023/07/04 02:14:17;;;;;;;5.60;1.95;;;13.10;99.90;;;;;;5019367;28;20545;-71
2023/07/04 02:16:44;;;;;;;5.07;1.95;;;13.20;99.90;;;;;;5024483;28;20068;-72
2023/07/04 02:19:10;;;;;;;6.50;1.58;;;13.20;99.90;;;;;;5007059;28;20041;-71
2023/07/04 02:21:35;;;;;;;6.25;2.35;;;13.10;99.90;;;;;;5001531;28;20041;-71
2023/07/04 02:24:02;;;;;;;3.58;1.55;;;13.10;99.90;;;;;;5023480;28;20049;-72
2023/07/04 02:26:28;;;;;;;5.65;1.90;;;13.20;99.90;;;;;;5047533;28;20492;-73
2023/07/04 02:28:54;;;;;;;5.13;1.77;;;13.10;99.90;;;;;;5044069;28;20047;-70
2023/07/04 02:31:20;;;;;;;7.25;1.83;;;13.10;99.90;;;;;;5025671;28;20076;-69
2023/07/04 02:33:45;;;;;;;5.70;1.70;;;13.10;99.90;;;;;;5043266;28;20091;-71
2023/07/04 02:36:11;;;;;;;6.55;1.73;;;13.00;99.90;;;;;;5021664;28;20045;-70
2023/07/04 02:38:39;;;;;;;6.15;1.75;;;13.00;99.90;;;;;;5041187;28;20484;-71
2023/07/04 02:41:05;;;;;;;6.15;1.65;;;13.00;99.90;;;;;;5029634;28;20122;-71
2023/07/04 02:43:31;;;;;;;5.20;1.60;;;13.00;99.90;;;;;;4997051;28;20760;-71
2023/07/04 02:45:57;;;;;;;6.03;1.50;;;12.90;99.90;;;;;;4982525;28;20087;-71
2023/07/04 02:48:24;;;;;;;5.90;1.90;;;13.00;99.90;;;;;;5021991;28;20183;-71
2023/07/04 02:50:50;;;;;;;7.68;1.63;;;12.90;99.90;;;;;;5004166;28;20049;-70
2023/07/04 02:53:21;;;;;;;8.93;2.40;;;12.90;99.90;;;;;;5011990;28;20623;-70
2023/07/04 02:55:48;;;;;;;8.60;1.90;;;13.00;99.90;;;;;;5008641;28;20783;-69
2023/07/04 02:58:14;;;;;;;4.75;1.23;;;13.00;99.90;;;;;;5017542;28;20041;-70
2023/07/04 03:00:40;;;;;;;4.68;1.42;;;12.90;99.90;;;;;;5024689;28;20040;-70
2023/07/04 03:03:06;;;;;;;4.03;1.20;;;12.90;99.90;;;;;;5018397;28;20049;-70
2023/07/04 03:05:32;;;;;;;4.13;1.10;;;12.80;99.90;;;;;;5015077;28;20087;-70
2023/07/04 03:07:57;;;;;;;2.45;1.00;;;12.80;99.90;;;;;;4994880;28;20049;-70
2023/07/04 03:10:23;;;;;;;4.80;0.90;;;12.70;99.90;;;;;;5021785;28;20041;-71
2023/07/04 03:12:48;;;;;;;4.22;0.95;;;12.70;99.90;;;;;;5005975;28;20045;-71
2023/07/04 03:15:14;;;;;;;2.15;0.90;;;12.60;99.90;;;;;;5021245;28;20052;-70
2023/07/04 03:17:40;;;;;;;2.97;0.80;;;12.50;99.90;;;;;;5003710;28;20053;-71
2023/07/04 03:20:09;;;;;;;3.95;0.90;;;12.50;99.90;;;;;;4997059;28;20606;-71
2023/07/04 03:22:37;;;;;;;2.55;1.02;;;12.50;99.90;;;;;;5022138;28;20962;-70
2023/07/04 03:25:03;;;;;;;3.67;0.85;;;12.50;99.90;;;;;;5021516;28;20500;-71
2023/07/04 03:27:28;;;;;;;2.15;0.88;;;12.50;99.90;;;;;;4993112;28;20810;-70
2023/07/04 03:29:54;;;;;;;1.75;0.82;;;12.50;99.90;;;;;;5001635;28;20054;-71
2023/07/04 03:32:20;;;;;;;2.88;1.00;;;12.40;99.90;;;;;;4996491;28;20532;-71
2023/07/04 03:34:46;;;;;;;2.35;0.73;;;12.40;99.90;;;;;;4998648;28;20543;-71
2023/07/04 03:37:12;;;;;;;2.72;1.10;;;12.40;99.90;;;;;;4995861;28;20057;-70
2023/07/04 03:39:38;;;;;;;3.63;0.90;;;12.30;99.90;;;;;;4992745;28;20058;-71
2023/07/04 03:42:04;;;;;;;2.63;0.82;;;12.30;99.90;;;;;;5001250;28;20556;-71
2023/07/04 03:44:30;;;;;;;2.35;1.15;;;12.30;99.90;;;;;;4999685;28;20049;-71
2023/07/04 03:46:55;;;;;;;3.75;1.20;;;12.30;99.90;;;;;;4997815;28;22090;-75
2023/07/04 03:49:21;;;;;;;7.78;1.65;;;12.30;99.90;;;;;;5002152;28;20433;-75
2023/07/04 03:51:47;;;;;;;3.65;1.10;;;12.30;99.90;;;;;;5002338;28;20057;-75
2023/07/04 03:54:12;;;;;;;3.13;1.08;;;12.20;99.90;;;;;;5003587;28;20077;-75
2023/07/04 03:56:38;;;;;;;3.85;1.30;;;12.20;99.90;;;;;;5004112;28;20131;-76
2023/07/04 03:59:04;;;;;;;4.78;1.50;;;12.30;99.90;;;;;;4985271;28;20261;-75
2023/07/04 04:01:29;;;;;;;4.78;1.50;;;12.20;99.90;;;;;;5006793;28;20045;-76
2023/07/04 04:03:55;;;;;;;6.47;1.55;;;12.30;99.90;;;;;;5005917;28;20403;-75
2023/07/04 04:06:21;;;;;;;5.05;1.38;;;12.40;99.90;;;;;;5024243;28;20053;-75
2023/07/04 04:08:47;;;;;;;7.30;1.40;;;12.40;99.90;;;;;;5018422;28;20041;-75
2023/07/04 04:11:32;;;;;;;7.07;1.30;;;12.50;99.90;;;;;;5024506;28;20602;-75
2023/07/04 04:14:16;;;;;;;6.85;1.77;;;12.80;99.90;;;;;;5023604;28;20095;-76
2023/07/04 04:16:42;;;;;;;7.07;1.52;;;12.90;99.90;;;;;;5005522;28;20602;-76
2023/07/04 04:19:08;;;;;;;5.70;1.60;;;13.00;99.90;;;;;;5001681;28;20056;-75
2023/07/04 04:21:34;;;;;;;5.38;1.48;;;13.10;99.90;;;;;;5022635;28;20040;-76
2023/07/04 04:23:59;;;;;;;4.20;1.45;;;13.30;99.90;;;;;;4983811;28;20055;-75
2023/07/04 04:26:25;;;;;;;6.22;1.50;;;13.50;99.90;;;;;;4987426;28;20053;-75
2023/07/04 04:28:53;;;;;;;7.95;1.45;;;13.50;99.90;;;;;;5002874;28;20037;-75
2023/07/04 04:31:19;;;;;;;8.82;1.35;;;13.40;99.90;;;;;;5008484;28;20095;-75
2023/07/04 04:33:44;;;;;;;6.00;1.48;;;13.40;99.90;;;;;;5024576;28;20053;-75
2023/07/04 04:36:10;;;;;;;7.85;1.70;;;13.30;99.90;;;;;;5002426;28;20052;-75
2023/07/04 04:38:36;;;;;;;5.78;1.58;;;13.30;99.90;;;;;;5021465;28;20064;-76
2023/07/04 04:41:09;;;;;;;10.55;1.85;;;13.30;99.90;;;;;;5020649;28;21613;-75
2023/07/04 04:43:35;;;;;;;7.60;1.63;;;13.30;99.90;;;;;;4999731;28;20049;-76
2023/07/04 04:46:01;;;;;;;7.85;1.38;;;13.30;99.90;;;;;;5020660;28;20052;-76
2023/07/04 04:48:35;;;;;;;10.90;2.08;;;13.40;99.90;;;;;;5038003;28;20044;-76
2023/07/04 04:51:09;;;;;;;10.15;2.10;;;13.30;99.90;;;;;;5023406;28;20055;-77
2023/07/04 04:53:35;;;;;;;7.50;1.88;;;13.40;99.90;;;;;;5024384;28;20400;-79
2023/07/04 04:56:05;;;;;;;8.60;1.85;;;13.40;99.90;;;;;;5023306;28;20485;-74
2023/07/04 04:58:31;;;;;;;6.65;1.83;;;13.60;99.90;;;;;;5022559;28;20052;-76
2023/07/04 05:00:56;;;;;;;13.40;1.98;;;13.60;99.90;;;;;;5023497;28;20046;-76
2023/07/04 05:03:23;;;;;;;8.80;1.70;;;13.70;99.90;;;;;;5018388;28;20043;-77
2023/07/04 05:05:49;;;;;;;9.30;2.05;;;13.80;99.90;;;;;;5026202;28;20091;-78
2023/07/04 05:08:14;;;;;;;11.15;1.90;;;13.90;99.90;;;;;;5035985;28;20115;-79
2023/07/04 05:10:40;;;;;;;12.43;1.85;;;14.10;99.90;;;;;;5021266;28;20052;-76
2023/07/04 05:13:05;;;;;;;10.50;2.10;;;14.10;99.90;;;;;;5015715;28;20057;-76
2023/07/04 05:15:31;;;;;;;10.05;2.15;;;14.20;99.90;;;;;;5036609;28;20041;-75
2023/07/04 05:17:57;;;;;;;8.60;1.65;;;14.20;99.90;;;;;;5039408;28;20512;-75
2023/07/04 05:20:24;;;;;;;6.65;1.58;;;14.30;99.90;;;;;;5018005;28;22062;-70
2023/07/04 05:22:53;;;;;;;8.73;1.60;;;14.40;99.90;;;;;;5005227;28;20060;-84
2023/07/04 05:25:19;;;;;;;7.53;1.58;;;14.60;99.90;;;;;;5007970;28;20407;-81
2023/07/04 05:27:45;;;;;;;7.63;1.70;;;14.80;99.90;;;;;;5004147;28;20052;-81
2023/07/04 05:30:11;;;;;;;12.93;2.08;;;14.80;99.90;;;;;;5000034;28;20049;-84
2023/07/04 05:32:37;;;;;;;11.98;1.75;;;14.90;99.90;;;;;;5018355;28;20052;-82
2023/07/04 05:35:03;;;;;;;9.65;1.63;;;15.00;99.90;;;;;;5001798;28;20054;-80
2023/07/04 05:37:30;;;;;;;8.65;1.85;;;15.00;99.90;;;;;;5017612;28;20095;-81
2023/07/04 05:39:57;;;;;;;8.20;2.22;;;15.00;99.90;;;;;;5023858;28;20040;-84
2023/07/04 05:42:24;;;;;;;9.13;1.65;;;15.00;99.90;;;;;;5018079;28;20128;-85
2023/07/04 05:44:50;;;;;;;5.72;1.40;;;15.10;99.90;;;;;;5005305;28;20049;-86
2023/07/04 05:47:16;;;;;;;6.57;1.33;;;15.10;99.90;;;;;;5015870;28;20464;-87
2023/07/04 05:49:44;;;;;;;7.85;1.88;;;15.10;99.90;;;;;;5019179;28;20041;-84
2023/07/04 05:52:10;;;;;;;6.38;2.03;;;15.10;99.90;;;;;;5036456;28;20056;-70
2023/07/04 05:54:35;;;;;;;8.13;1.42;;;15.20;99.90;;;;;;5030867;28;20041;-78
2023/07/04 05:57:01;;;;;;;5.95;1.60;;;15.20;99.90;;;;;;5009013;28;20460;-76
2023/07/04 05:59:27;;;;;;;5.68;1.45;;;15.20;99.90;;;;;;5047706;28;20049;-77
2023/07/04 06:01:53;;;;;;;5.82;1.45;;;15.30;99.90;;;;;;5041758;28;20049;-78
2023/07/04 06:04:19;;;;;;;11.93;1.75;;;15.30;99.90;;;;;;5004513;28;20057;-79
2023/07/04 06:06:52;;;;;;;4.90;1.60;;;15.30;99.90;;;;;;5015755;28;20405;-79
2023/07/04 06:09:20;;;;;;;3.63;1.30;;;15.40;99.90;;;;;;5013845;28;20045;-76
2023/07/04 06:11:46;;;;;;;5.88;1.63;;;15.40;99.90;;;;;;5015186;28;20156;-81
2023/07/04 06:14:21;;;;;;;8.70;1.90;;;15.40;99.90;;;;;;5019308;28;20083;-88
2023/07/04 06:16:46;;;;;;;7.97;1.60;;;15.50;99.90;;;;;;5050141;28;20112;-85
2023/07/04 06:19:12;;;;;;;5.97;1.50;;;15.50;99.90;;;;;;5056131;28;20048;-88
2023/07/04 06:21:38;;;;;;;7.15;1.70;;;15.60;99.90;;;;;;5051819;28;20496;-87
2023/07/04 06:24:03;;;;;;;6.00;1.20;;;15.60;99.90;;;;;;5028446;28;20079;-85
2023/07/04 06:26:32;;;;;;;4.32;1.23;;;15.70;99.90;;;;;;5022280;28;20041;-82
2023/07/04 06:28:58;;;;;;;5.97;1.50;;;15.70;99.90;;;;;;5016535;28;20050;-84
2023/07/04 06:31:25;;;;;;;7.63;1.70;;;15.90;99.90;;;;;;5002604;28;20126;-86
2023/07/04 06:33:51;;;;;;;6.25;1.75;;;15.90;99.90;;;;;;5005348;28;20037;-85
2023/07/04 06:36:17;;;;;;;7.00;1.55;;;16.00;99.90;;;;;;5003786;28;20554;-86
2023/07/04 06:38:43;;;;;;;5.32;1.45;;;16.00;99.90;;;;;;5005139;28;20136;-87
2023/07/04 06:41:11;;;;;;;6.70;2.15;;;16.00;99.90;;;;;;5005737;28;20033;-84
2023/07/04 06:43:40;;;;;;;4.32;1.48;;;16.10;99.90;;;;;;5007063;28;20132;-87
2023/07/04 06:46:05;;;;;;;3.28;1.20;;;16.20;99.90;;;;;;4999949;28;20121;-85
2023/07/04 06:48:31;;;;;;;12.02;1.63;;;16.10;99.90;;;;;;5006798;28;20125;-83
2023/07/04 06:51:08;;;;;;;8.65;2.10;;;16.30;99.90;;;;;;5002971;28;20048;-83
2023/07/04 06:53:35;;;;;;;8.13;1.63;;;16.50;99.90;;;;;;5019372;28;20645;-84
2023/07/04 06:56:11;;;;;;;4.88;1.63;;;16.60;99.90;;;;;;5037431;28;20474;-83
2023/07/04 06:58:43;;;;;;;7.90;1.58;;;16.70;99.90;;;;;;5040303;28;20044;-83
2023/07/04 07:01:10;;;;;;;6.72;1.85;;;17.00;99.90;;;;;;5012335;28;20114;-81
2023/07/04 07:03:36;;;;;;;12.45;2.15;;;17.20;99.90;;;;;;5031206;28;20072;-81
2023/07/04 07:06:03;;;;;;;6.55;1.55;;;17.20;99.90;;;;;;5049309;28;20535;-80
2023/07/04 07:08:30;;;;;;;4.13;1.45;;;17.10;99.90;;;;;;5048474;28;20090;-81
2023/07/04 07:11:11;;;;;;;6.63;1.90;;;17.00;99.90;;;;;;5049131;28;20496;-81
2023/07/04 07:13:37;;;;;;;7.47;2.33;;;17.00;99.90;;;;;;4999556;28;20042;-82
2023/07/04 07:16:15;;;;;;;6.68;1.50;;;17.00;99.90;;;;;;4990640;28;20049;-83
2023/07/04 07:18:42;;;;;;;9.07;2.00;;;17.00;99.90;;;;;;5020765;28;20136;-81
2023/07/04 07:21:09;;;;;;;8.55;1.48;;;17.00;99.90;;;;;;5029561;28;20049;-81
2023/07/04 07:23:36;;;;;;;7.00;1.50;;;17.00;99.90;;;;;;5010108;28;20087;-81
2023/07/04 07:26:04;;;;;;;6.80;1.75;;;17.00;99.90;;;;;;5041109;28;20400;-81
2023/07/04 07:28:31;;;;;;;8.40;1.85;;;17.00;99.90;;;;;;5045113;28;20037;-81
2023/07/04 07:31:07;;;;;;;5.82;1.70;;;17.00;99.90;;;;;;5044207;28;20072;-81
2023/07/04 07:33:36;;;;;;;7.80;1.48;;;17.00;99.90;;;;;;5005178;28;20064;-84
2023/07/04 07:36:14;;;;;;;7.30;1.70;;;17.10;99.90;;;;;;5002544;28;20041;-83
2023/07/04 07:38:40;;;;;;;7.40;1.52;;;17.20;99.90;;;;;;5006223;28;20041;-85
2023/07/04 07:41:06;;;;;;;6.72;1.58;;;17.40;99.90;;;;;;4988464;28;20046;-85
2023/07/04 07:43:33;;;;;;;11.77;1.50;;;17.60;99.90;;;;;;5028364;28;20046;-85
2023/07/04 07:45:58;;;;;;;7.45;1.70;;;17.70;99.90;;;;;;5011011;28;20500;-85
2023/07/04 07:48:24;;;;;;;6.20;1.50;;;17.70;99.90;;;;;;4989776;28;20042;-85
2023/07/04 07:50:50;;;;;;;5.82;1.40;;;17.60;99.90;;;;;;5007923;28;20706;-84
2023/07/04 07:53:15;;;;;;;8.43;1.70;;;17.60;99.90;;;;;;5004502;28;20107;-85
2023/07/04 07:55:41;;;;;;;9.15;2.22;;;17.50;99.90;;;;;;5025471;28;20136;-85
2023/07/04 07:58:08;;;;;;;11.32;2.30;;;17.30;99.90;;;;;;4996968;28;20057;-75
2023/07/04 08:00:34;;;;;;;6.70;2.35;;;17.00;99.90;;;;;;5005946;28;20542;-77
2023/07/04 08:03:00;;;;;;;7.75;2.17;;;16.80;99.90;;;;;;5035413;28;20033;-77
2023/07/04 08:05:26;;;;;;;9.88;2.67;;;16.80;99.90;;;;;;5020915;28;20045;-78
2023/07/04 08:07:51;;;;;;;12.80;3.28;;;16.80;99.90;;;;;;5027635;28;20472;-78
2023/07/04 08:10:17;;;;;;;9.60;2.42;;;16.80;99.90;;;;;;5032428;28;20496;-78
2023/07/04 08:12:43;;;;;;;18.02;2.70;;;16.80;99.90;;;;;;5026389;28;20042;-79
2023/07/04 08:15:10;;;;;;;10.55;2.88;;;16.80;99.90;;;;;;5043584;28;20090;-78
2023/07/04 08:17:36;;;;;;;14.13;2.53;;;17.00;99.90;;;;;;5043631;28;20463;-77
2023/07/04 08:20:06;;;;;;;13.27;3.05;;;17.20;99.90;;;;;;5024175;28;20531;-77
2023/07/04 08:22:32;;;;;;;9.98;2.90;;;17.60;99.90;;;;;;5016068;28;20103;-77
2023/07/04 08:24:59;;;;;;;12.20;2.72;;;17.90;99.90;;;;;;5008989;28;20033;-79
2023/07/04 08:27:26;;;;;;;8.45;2.22;;;18.00;99.90;;;;;;5003802;28;20049;-76
2023/07/04 08:29:51;;;;;;;10.18;2.65;;;17.90;99.90;;;;;;5026282;28;20095;-77
2023/07/04 08:32:18;;;;;;;14.20;3.22;;;17.80;99.90;;;;;;5004584;28;20054;-76
2023/07/04 08:34:46;;;;;;;14.73;2.95;;;17.70;99.90;;;;;;5005455;28;20124;-79
2023/07/04 08:37:13;;;;;;;11.98;2.35;;;17.50;99.90;;;;;;5019629;28;20033;-79
2023/07/04 08:39:38;;;;;;;12.07;3.10;;;17.30;99.90;;;;;;5000479;28;20069;-80
2023/07/04 08:42:06;;;;;;;9.90;2.30;;;17.40;99.90;;;;;;4991757;28;20544;-83
2023/07/04 08:44:46;;;;;;;7.70;2.38;;;17.60;99.90;;;;;;4995909;28;20073;-79
2023/07/04 08:47:14;;;;;;;8.95;2.47;;;17.90;99.90;;;;;;5021225;28;20573;-79
2023/07/04 08:49:42;;;;;;;10.02;2.50;;;18.30;99.90;;;;;;5001498;28;20056;-79
2023/07/04 08:52:21;;;;;;;12.57;2.20;;;18.70;99.90;;;;;;5026507;28;20317;-81
2023/07/04 08:54:47;;;;;;;11.05;2.42;;;18.60;99.90;;;;;;5016824;28;20144;-79
2023/07/04 08:57:19;;;;;;;10.73;2.00;;;18.50;99.90;;;;;;5022395;28;20130;-80
2023/07/04 08:59:46;;;;;;;10.77;2.20;;;18.60;99.90;;;;;;5017207;28;20136;-80
2023/07/04 09:02:42;;;;;;;7.97;1.90;;;18.70;99.90;;;;;;5000639;28;20052;-79
2023/07/04 09:05:16;;;;;;;5.38;1.90;;;18.70;99.90;;;;;;5019458;28;20133;-82
2023/07/04 09:07:56;;;;;;;5.55;1.58;;;18.90;99.90;;;;;;4997471;28;20037;-79
2023/07/04 09:10:59;;;;;;;10.40;2.33;;;19.00;99.90;;;;;;5024246;28;20508;-80
2023/07/04 09:13:31;;;;;;;6.40;2.03;;;19.20;99.90;;;;;;5001264;28;20053;-79
2023/07/04 09:16:00;;;;;;;10.75;1.90;;;19.10;99.90;;;;;;5018173;28;20091;-79
2023/07/04 09:19:03;;;;;;;7.72;1.60;;;18.70;99.90;;;;;;5023125;28;20037;-80
2023/07/04 09:21:31;;;;;;;7.33;1.90;;;18.40;99.90;;;;;;4943739;28;20047;-80
2023/07/04 09:24:04;;;;;;;6.55;1.75;;;18.20;99.90;;;;;;5010490;28;20037;-78
2023/07/04 09:26:47;;;;;;;11.70;2.67;;;18.50;99.90;;;;;;5019549;28;20263;-80
2023/07/04 09:29:15;;;;;;;14.73;1.98;;;18.90;99.90;;;;;;5013138;28;20061;-81
2023/07/04 09:31:43;;;;;;;10.70;1.88;;;19.00;99.90;;;;;;5008109;28;20049;-81
2023/07/04 09:34:14;;;;;;;7.15;1.77;;;18.90;99.90;;;;;;5014988;28;20128;-81
2023/07/04 09:36:40;;;;;;;6.80;1.85;;;19.10;99.90;;;;;;5017231;28;20065;-81
2023/07/04 09:39:08;;;;;;;8.63;2.42;;;19.00;99.90;;;;;;5004117;28;20038;-81
2023/07/04 09:41:39;;;;;;;12.20;1.88;;;19.00;99.90;;;;;;4985955;28;20042;-80
2023/07/04 09:44:18;;;;;;;10.23;2.00;;;19.10;99.90;;;;;;5006340;28;20034;-81
2023/07/04 09:46:51;;;;;;;7.97;2.00;;;19.10;99.90;;;;;;4999146;28;20081;-79
2023/07/04 09:49:21;;;;;;;9.57;2.35;;;19.20;99.90;;;;;;5025177;28;20060;-81
2023/07/04 09:52:04;;;;;;;8.07;2.00;;;19.10;99.90;;;;;;5005114;28;20046;-80
2023/07/04 09:54:35;;;;;;;7.65;2.10;;;19.00;99.90;;;;;;5016267;28;20045;-79
2023/07/04 09:57:21;;;;;;;7.85;2.08;;;19.00;99.90;;;;;;5006990;28;20040;-79
2023/07/04 09:59:48;;;;;;;5.18;1.65;;;18.80;99.90;;;;;;5008516;28;20393;-80
2023/07/04 10:02:18;;;;;;;11.88;2.17;;;18.80;99.90;;;;;;5009261;28;20048;-80
2023/07/04 10:04:46;;;;;;;7.32;2.15;;;18.90;99.90;;;;;;5026544;28;20045;-80
2023/07/04 10:07:17;;;;;;;9.48;2.10;;;19.10;99.90;;;;;;5023770;28;20072;-81
2023/07/04 10:10:07;;;;;;;10.35;2.45;;;19.20;99.90;;;;;;5021896;28;20042;-81
2023/07/04 10:12:41;;;;;;;9.27;1.75;;;19.50;99.90;;;;;;5046913;28;20448;-83
2023/07/04 10:15:07;;;;;;;7.55;1.98;;;19.40;99.90;;;;;;5030544;28;20036;-82
2023/07/04 10:17:36;;;;;;;10.00;2.45;;;19.50;99.90;;;;;;5011673;28;20080;-80
2023/07/04 10:20:13;;;;;;;7.60;1.92;;;19.40;99.90;;;;;;5030704;28;20041;-82
2023/07/04 10:22:52;;;;;;;10.68;2.45;;;19.10;99.90;;;;;;5048462;28;20137;-80
2023/07/04 10:25:22;;;;;;;8.48;2.33;;;19.10;99.90;;;;;;5027988;28;20096;-81
2023/07/04 10:27:51;;;;;;;10.55;2.13;;;19.10;99.90;;;;;;5025987;28;20041;-83
2023/07/04 10:30:22;;;;;;;10.15;2.15;;;19.30;99.90;;;;;;5048367;28;20098;-81
2023/07/04 10:32:53;;;;;;;8.43;2.33;;;19.60;99.90;;;;;;5025271;28;20084;-82
2023/07/04 10:35:23;;;;;;;9.52;2.17;;;19.80;99.90;;;;;;5025176;28;20048;-83
2023/07/04 10:37:56;;;;;;;11.15;2.83;;;20.00;99.90;;;;;;5030071;28;20040;-83
2023/07/04 10:40:23;;;;;;;13.00;2.72;;;20.20;99.90;;;;;;5008055;28;20033;-85
2023/07/04 10:42:52;;;;;;;6.10;2.22;;;20.40;99.90;;;;;;5021455;28;20397;-85
2023/07/04 10:45:19;;;;;;;15.00;2.72;;;20.30;99.90;;;;;;5030094;28;20610;-86
2023/07/04 10:47:48;;;;;;;11.70;2.10;;;20.60;99.90;;;;;;5028976;28;20099;-83
2023/07/04 10:50:22;;;;;;;7.80;2.63;;;20.50;99.90;;;;;;5026415;28;20115;-84
2023/07/04 10:52:49;;;;;;;10.32;2.30;;;20.50;99.90;;;;;;5038372;28;20424;-84
2023/07/04 10:55:20;;;;;;;6.85;1.90;;;20.20;99.90;;;;;;5043570;28;20040;-84
2023/07/04 10:57:56;;;;;;;8.68;2.45;;;20.00;99.90;;;;;;5036007;28;20169;-82
2023/07/04 11:01:03;;;;;;;10.88;2.13;;;19.90;99.90;;;;;;5043739;28;20159;-82
2023/07/04 11:03:50;;;;;;;12.60;2.95;;;19.50;99.90;;;;;;4950003;28;20507;-83
2023/07/04 11:06:32;;;;;;;13.25;3.22;;;19.30;99.90;;;;;;4960236;28;20463;-86
2023/07/04 11:09:00;;;;;;;8.88;2.58;;;19.00;99.90;;;;;;5002573;28;20036;-82
2023/07/04 11:11:29;;;;;;;9.55;2.60;;;18.90;99.90;;;;;;5021473;28;20493;-80
2023/07/04 11:14:00;;;;;;;10.35;1.80;;;18.80;99.90;;;;;;5023981;28;20041;-82
2023/07/04 11:16:31;;;;;;;9.88;2.22;;;18.80;99.90;;;;;;5021855;28;20573;-84
2023/07/04 11:19:14;;;;;;;12.13;2.22;;;18.70;99.90;;;;;;5021431;28;20041;-86
2023/07/04 11:22:00;;;;;;;;;;;18.80;99.90;;;;;;5019411;28;20105;-85
2023/07/04 11:24:52;;;;;;;9.73;2.85;;;18.80;99.90;;;;;;5048330;28;19946;-86
2023/07/04 11:27:18;;;;;;;7.93;2.40;;;19.00;99.90;;;;;;5023782;28;20052;-87
2023/07/04 11:29:46;;;;;;;7.80;1.90;;;19.10;99.90;;;;;;5055953;28;20044;-87
2023/07/04 11:32:18;;;;;;;6.80;1.75;;;19.10;99.90;;;;;;5036126;28;20135;-86
2023/07/04 11:35:00;;;;;;;8.05;1.70;;;19.20;99.90;;;;;;5038944;28;20081;-87
2023/07/04 11:37:36;;;;;;;9.75;2.55;;;19.50;99.90;;;;;;5038636;28;20057;-79
2023/07/04 11:40:23;;;;;;;8.32;2.22;;;19.70;99.90;;;;;;5028116;28;20052;-81
2023/07/04 11:43:00;;;;;;;7.30;2.33;;;20.00;99.90;;;;;;5044347;28;20052;-80
2023/07/04 11:45:29;;;;;;;8.15;1.80;;;20.30;99.90;;;;;;5043024;28;20055;-80
2023/07/04 11:48:02;;;;;;;7.22;1.55;;;20.50;99.90;;;;;;5045983;28;20108;-81
2023/07/04 11:50:40;;;;;;;8.90;2.40;;;20.50;99.90;;;;;;5026295;28;20063;-82
2023/07/04 11:53:19;;;;;;;6.43;1.88;;;20.60;99.90;;;;;;5028628;28;20047;-80
2023/07/04 11:56:03;;;;;;;6.80;1.50;;;20.60;99.90;;;;;;5039124;28;20086;-83
2023/07/04 11:58:28;;;;;;;8.57;2.05;;;20.40;99.90;;;;;;5035385;28;20038;-80
2023/07/04 12:00:57;;;;;;;6.68;1.88;;;20.50;99.90;;;;;;5023313;28;20045;-82
2023/07/04 12:03:22;;;;;;;5.05;1.60;;;20.50;99.90;;;;;;5009138;28;20067;-82
2023/07/04 12:05:57;;;;;;;7.32;2.00;;;20.70;99.90;;;;;;5009396;28;20111;-82
2023/07/04 12:08:47;;;;;;;5.47;1.60;;;20.50;99.90;;;;;;5011387;28;20148;-80
2023/07/04 12:11:26;;;;;;;8.25;2.00;;;20.30;99.90;;;;;;5046568;28;20044;-81
2023/07/04 12:13:53;;;;;;;10.05;2.10;;;20.20;99.90;;;;;;5040219;28;20080;-83
2023/07/04 12:16:21;;;;;;;6.75;1.77;;;20.50;99.90;;;;;;5027015;28;20499;-83
2023/07/04 12:18:47;;;;;;;9.63;2.08;;;20.20;99.90;;;;;;5040956;28;20048;-81
2023/07/04 12:21:17;;;;;;;12.35;2.97;;;20.40;99.90;;;;;;5021758;28;20060;-80
2023/07/04 12:23:46;;;;;;;6.18;1.92;;;20.40;99.90;;;;;;5041910;28;20075;-81
2023/07/04 12:26:18;;;;;;;7.40;1.63;;;20.40;99.90;;;;;;5038892;28;20052;-81
2023/07/04 12:28:46;;;;;;;8.88;2.03;;;20.50;99.90;;;;;;5047506;28;20045;-82
2023/07/04 12:31:14;;;;;;;9.00;2.42;;;20.60;99.90;;;;;;5027087;28;20037;-81
2023/07/04 12:33:44;;;;;;;8.48;1.70;;;20.50;99.90;;;;;;5024481;28;20437;-80
2023/07/04 12:36:13;;;;;;;7.95;2.00;;;20.50;99.90;;;;;;5023132;28;20041;-79
2023/07/04 12:38:47;;;;;;;9.15;2.10;;;20.60;99.90;;;;;;5028402;28;20733;-82
2023/07/04 12:41:17;;;;;;;10.10;2.33;;;20.60;99.90;;;;;;5041083;28;20399;-82
2023/07/04 12:43:43;;;;;;;10.23;2.20;;;20.60;99.90;;;;;;5006946;28;20064;-82
2023/07/04 12:46:10;;;;;;;12.60;2.53;;;20.50;99.90;;;;;;5042749;28;20485;-82
2023/07/04 12:48:37;;;;;;;10.18;2.83;;;20.40;99.90;;;;;;5042246;28;20045;-82
2023/07/04 12:51:07;;;;;;;8.18;2.17;;;20.40;99.90;;;;;;5018590;28;20122;-82
2023/07/04 12:53:33;;;;;;;9.70;2.08;;;20.50;99.90;;;;;;5016555;28;20071;-83
2023/07/04 12:56:00;;;;;;;8.80;2.00;;;20.60;99.90;;;;;;5036528;28;20454;-82
2023/07/04 12:58:26;;;;;;;9.40;2.22;;;20.50;99.90;;;;;;5021065;28;20155;-83